createdAt,value
2022-08-30T00:03:46.178Z,24.46
2022-08-30T00:08:41.827Z,24.09
2022-08-30T00:13:35.688Z,24.19
2022-08-30T00:18:32.047Z,24.48
2022-08-30T00:23:26.042Z,23.49
2022-08-30T00:28:25.175Z,24.49
2022-08-30T00:33:21.167Z,24.30
2022-08-30T00:38:15.628Z,23.85
2022-08-30T00:43:15.926Z,24.44
2022-08-30T00:48:10.945Z,23.39
2022-08-30T00:53:08.300Z,24.67
2022-08-30T00:58:05.150Z,24.51
2022-08-30T01:03:01.991Z,23.99
2022-08-30T01:07:58.958Z,24.39
2022-08-30T01:12:55.135Z,24.51
2022-08-30T01:17:54.410Z,24.45
2022-08-30T01:23:04.171Z,24.40
2022-08-30T01:28:04.714Z,24.22
2022-08-30T01:33:00.371Z,23.19
2022-08-30T01:37:53.662Z,23.46
2022-08-30T01:42:49.093Z,24.16
2022-08-30T01:47:42.513Z,24.14
2022-08-30T01:52:36.100Z,23.89
2022-08-30T01:57:29.537Z,24.12
2022-08-30T02:02:28.190Z,24.24
2022-08-30T02:07:21.722Z,24.58
2022-08-30T02:12:15.490Z,24.56
2022-08-30T02:17:11.853Z,24.50
2022-08-30T02:22:07.015Z,23.58
2022-08-30T02:27:00.345Z,24.11
2022-08-30T02:32:02.675Z,24.25
2022-08-30T02:36:56.517Z,24.76
2022-08-30T02:41:51.460Z,24.73
2022-08-30T02:46:45.611Z,24.71
2022-08-30T02:51:39.913Z,24.61
2022-08-30T02:56:33.248Z,24.03
2022-08-30T03:01:29.428Z,24.20
2022-08-30T03:06:22.972Z,23.74
2022-08-30T03:11:16.403Z,23.95
2022-08-30T03:16:10.511Z,23.45
2022-08-30T03:21:11.551Z,23.85
2022-08-30T03:26:05.243Z,23.23
2022-08-30T03:30:58.521Z,24.27
2022-08-30T03:35:51.793Z,24.16
2022-08-30T03:40:46.840Z,24.42
2022-08-30T03:45:40.138Z,24.46
2022-08-30T03:50:35.374Z,24.44
2022-08-30T03:55:29.975Z,23.88
2022-08-30T04:00:25.088Z,24.04
2022-08-30T04:05:18.809Z,24.33
2022-08-30T04:10:12.767Z,24.36
2022-08-30T04:15:07.782Z,24.57
2022-08-30T04:20:02.465Z,24.48
2022-08-30T04:24:55.774Z,24.56
2022-08-30T04:29:49.608Z,24.46
2022-08-30T04:34:43.050Z,23.97
2022-08-30T04:39:38.013Z,24.00
2022-08-30T04:44:33.011Z,24.12
2022-08-30T04:49:29.782Z,24.55
2022-08-30T04:54:23.357Z,24.17
2022-08-30T04:59:18.067Z,24.02
2022-08-30T05:04:11.444Z,24.42
2022-08-30T05:09:06.498Z,24.53
2022-08-30T05:14:00.311Z,23.82
2022-08-30T05:18:55.955Z,24.50
2022-08-30T05:23:49.952Z,24.51
2022-08-30T05:28:43.364Z,24.53
2022-08-30T05:33:38.832Z,24.58
2022-08-30T05:38:33.880Z,24.34
2022-08-30T05:43:30.005Z,24.16
2022-08-30T05:48:23.712Z,24.57
2022-08-30T05:53:17.357Z,24.82
2022-08-30T05:58:12.181Z,25.10
2022-08-30T06:03:05.598Z,25.00
2022-08-30T06:07:58.884Z,25.56
2022-08-30T06:12:52.278Z,25.41
2022-08-30T06:17:47.126Z,25.95
2022-08-30T06:22:40.481Z,25.77
2022-08-30T06:27:33.958Z,26.28
2022-08-30T06:32:27.275Z,26.24
2022-08-30T06:37:29.543Z,26.33
2022-08-30T06:42:24.433Z,26.11
2022-08-30T06:47:17.710Z,26.58
2022-08-30T06:52:11.287Z,26.47
2022-08-30T06:57:06.338Z,27.01
2022-08-30T07:02:00.042Z,27.08
2022-08-30T07:06:53.477Z,26.45
2022-08-30T07:11:47.078Z,27.19
2022-08-30T07:16:44.529Z,27.38
2022-08-30T07:21:43.459Z,27.36
2022-08-30T07:26:41.439Z,27.30
2022-08-30T07:31:36.393Z,27.51
2022-08-30T07:36:31.213Z,28.11
2022-08-30T07:41:27.717Z,28.30
2022-08-30T07:46:25.372Z,27.86
2022-08-30T07:51:21.814Z,28.22
2022-08-30T07:56:17.068Z,28.24
2022-08-30T08:01:12.622Z,27.94
2022-08-30T08:06:08.440Z,28.91
2022-08-30T08:11:09.776Z,28.68
2022-08-30T08:16:04.880Z,28.67
2022-08-30T08:20:58.325Z,29.54
2022-08-30T08:25:51.863Z,29.64
2022-08-30T08:30:48.246Z,30.18
2022-08-30T08:35:43.441Z,30.87
2022-08-30T08:40:44.533Z,32.15
2022-08-30T08:45:48.627Z,33.20
2022-08-30T08:51:02.814Z,33.25
2022-08-30T08:55:56.275Z,34.17
2022-08-30T09:00:49.560Z,34.27
2022-08-30T09:05:44.767Z,34.17
2022-08-30T09:10:50.802Z,34.08
2022-08-30T09:15:44.618Z,34.23
2022-08-30T09:20:41.397Z,34.61
2022-08-30T09:25:41.278Z,34.46
2022-08-30T09:30:40.365Z,34.11
2022-08-30T09:35:37.306Z,33.72
2022-08-30T09:40:38.672Z,33.58
2022-08-30T09:45:34.981Z,33.87
2022-08-30T09:50:36.580Z,33.64
2022-08-30T09:55:46.800Z,33.92
2022-08-30T10:00:44.791Z,34.20
2022-08-30T10:05:52.064Z,34.32
2022-08-30T10:10:52.646Z,34.23
2022-08-30T10:15:50.656Z,34.44
2022-08-30T10:20:52.956Z,34.80
2022-08-30T10:25:54.515Z,34.95
2022-08-30T10:30:59.326Z,35.08
2022-08-30T10:35:58.302Z,35.02
2022-08-30T10:41:19.831Z,35.50
2022-08-30T10:46:21.248Z,35.45
2022-08-30T10:51:24.092Z,35.54
2022-08-30T10:56:21.259Z,36.13
2022-08-30T11:01:38.686Z,36.66
2022-08-30T11:06:46.427Z,37.21
2022-08-30T11:12:00.532Z,38.02
2022-08-30T11:16:57.083Z,38.72
2022-08-30T11:21:52.543Z,39.30
2022-08-30T11:27:11.266Z,40.26
2022-08-30T11:32:24.061Z,40.89
2022-08-30T11:37:37.491Z,41.41
2022-08-30T11:42:37.332Z,41.52
2022-08-30T11:47:40.846Z,41.36
2022-08-30T11:52:56.664Z,41.71
2022-08-30T11:57:58.588Z,41.98
2022-08-30T12:02:59.137Z,42.51
2022-08-30T12:08:03.019Z,42.99
2022-08-30T12:12:57.362Z,42.63
2022-08-30T12:18:16.697Z,43.46
2022-08-30T12:23:22.449Z,43.80
2022-08-30T12:28:26.210Z,44.01
2022-08-30T12:33:29.376Z,43.86
2022-08-30T12:38:27.462Z,44.04
2022-08-30T12:43:38.932Z,43.95
2022-08-30T12:48:38.529Z,44.08
2022-08-30T12:53:37.215Z,44.02
2022-08-30T12:58:43.553Z,43.83
2022-08-30T13:03:38.180Z,43.65
2022-08-30T13:08:38.140Z,43.65
2022-08-30T13:13:39.253Z,43.29
2022-08-30T13:18:32.658Z,43.09
2022-08-30T13:23:30.666Z,42.95
2022-08-30T13:28:25.354Z,42.99
2022-08-30T13:33:19.107Z,43.30
2022-08-30T13:38:17.429Z,43.21
2022-08-30T13:43:10.719Z,43.51
2022-08-30T13:48:10.808Z,43.92
2022-08-30T13:53:04.361Z,44.08
2022-08-30T13:57:58.050Z,44.18
2022-08-30T14:02:54.153Z,43.97
2022-08-30T14:07:54.840Z,43.71
2022-08-30T14:13:02.542Z,43.18
2022-08-30T14:18:01.637Z,42.43
2022-08-30T14:29:15.610Z,41.70
2022-08-30T14:34:11.446Z,42.35
2022-08-30T14:39:09.580Z,42.23
2022-08-30T14:44:02.903Z,42.09
2022-08-30T14:48:56.250Z,41.87
2022-08-30T14:53:53.204Z,41.27
2022-08-30T14:58:49.139Z,40.88
2022-08-30T15:03:42.991Z,40.32
2022-08-30T15:08:38.048Z,40.04
2022-08-30T15:13:32.712Z,39.32
2022-08-30T15:18:27.768Z,38.69
2022-08-30T15:23:22.844Z,38.07
2022-08-30T15:28:18.397Z,37.49
2022-08-30T15:33:12.018Z,36.96
2022-08-30T15:38:06.822Z,36.61
2022-08-30T15:43:00.086Z,35.66
2022-08-30T15:47:53.309Z,36.08
2022-08-30T15:52:46.659Z,35.55
2022-08-30T15:57:41.529Z,35.54
2022-08-30T16:02:35.086Z,35.28
2022-08-30T16:07:28.469Z,34.71
2022-08-30T16:12:23.557Z,34.32
2022-08-30T16:17:19.038Z,34.27
2022-08-30T16:22:14.501Z,34.18
2022-08-30T16:27:21.138Z,33.75
2022-08-30T16:32:14.736Z,33.44
2022-08-30T16:37:09.546Z,33.53
2022-08-30T16:42:03.494Z,32.92
2022-08-30T16:47:00.058Z,32.94
2022-08-30T16:51:53.521Z,32.54
2022-08-30T16:56:48.184Z,32.79
2022-08-30T17:01:56.091Z,32.58
2022-08-30T17:06:52.706Z,32.40
2022-08-30T17:11:52.381Z,32.23
2022-08-30T17:16:58.086Z,31.97
2022-08-30T17:22:01.536Z,31.90
2022-08-30T17:26:58.371Z,31.58
2022-08-30T17:31:54.689Z,31.32
2022-08-30T17:36:51.681Z,31.38
2022-08-30T17:41:50.483Z,30.93
2022-08-30T17:46:48.900Z,31.45
2022-08-30T17:51:47.723Z,31.26
2022-08-30T17:56:51.075Z,31.45
2022-08-30T18:01:57.725Z,30.30
2022-08-30T18:06:55.796Z,30.69
2022-08-30T18:11:56.303Z,31.10
2022-08-30T18:16:54.633Z,30.90
2022-08-30T18:21:48.315Z,30.69
2022-08-30T18:26:45.265Z,30.98
2022-08-30T18:31:38.610Z,30.95
2022-08-30T18:36:35.701Z,30.44
2022-08-30T18:41:42.909Z,30.78
2022-08-30T18:46:45.242Z,31.06
2022-08-30T18:51:56.369Z,31.01
2022-08-30T18:56:55.359Z,30.42
2022-08-30T19:01:51.354Z,30.83
2022-08-30T19:06:47.445Z,30.46
2022-08-30T19:11:45.179Z,30.73
2022-08-30T19:16:39.622Z,30.55
2022-08-30T19:21:40.899Z,30.67
2022-08-30T19:26:39.760Z,30.62
2022-08-30T19:31:41.711Z,29.69
2022-08-30T19:36:35.273Z,30.49
2022-08-30T19:41:29.764Z,29.97
2022-08-30T19:46:28.258Z,30.39
2022-08-30T19:51:23.819Z,30.08
2022-08-30T19:56:20.703Z,29.18
2022-08-30T20:01:33.083Z,30.16
2022-08-30T20:06:33.879Z,29.95
2022-08-30T20:11:34.378Z,30.07
2022-08-30T20:16:33.168Z,29.83
2022-08-30T20:21:32.419Z,30.06
2022-08-30T20:26:34.252Z,29.26
2022-08-30T20:31:33.824Z,29.91
2022-08-30T20:36:29.361Z,29.85
2022-08-30T20:41:29.726Z,29.23
2022-08-30T20:46:23.045Z,29.57
2022-08-30T20:51:19.499Z,28.50
2022-08-30T20:56:13.589Z,29.21
2022-08-30T21:01:10.774Z,28.99
2022-08-30T21:06:04.226Z,29.16
2022-08-30T21:10:57.676Z,28.87
2022-08-30T21:15:57.644Z,29.17
2022-08-30T21:20:57.606Z,28.93
2022-08-30T21:25:52.960Z,28.41
2022-08-30T21:30:49.039Z,28.94
2022-08-30T21:35:59.991Z,28.68
2022-08-30T21:40:57.096Z,28.01
2022-08-30T21:45:55.325Z,28.26
2022-08-30T21:50:48.732Z,28.37
2022-08-30T21:55:43.665Z,28.48
2022-08-30T22:00:40.878Z,28.26
2022-08-30T22:05:36.946Z,27.87
2022-08-30T22:10:33.207Z,28.27
2022-08-30T22:15:32.113Z,28.22
2022-08-30T22:20:27.563Z,28.02
2022-08-30T22:25:23.977Z,27.50
2022-08-30T22:30:17.834Z,27.14
2022-08-30T22:35:11.697Z,26.95
2022-08-30T22:40:07.295Z,27.36
2022-08-30T22:45:00.605Z,27.60
2022-08-30T22:49:54.062Z,27.55
2022-08-30T22:54:48.342Z,27.33
2022-08-30T22:59:43.125Z,27.05
2022-08-30T23:04:37.707Z,27.37
2022-08-30T23:09:31.365Z,27.28
2022-08-30T23:14:24.738Z,27.16
2022-08-30T23:19:19.583Z,27.08
2022-08-30T23:24:30.411Z,26.89
2022-08-30T23:29:41.310Z,26.75
2022-08-30T23:34:54.054Z,25.95
2022-08-30T23:40:04.797Z,26.38
2022-08-30T23:45:15.660Z,26.60
2022-08-30T23:50:27.989Z,25.72
2022-08-30T23:55:38.622Z,25.94
